Time;durP1;ratioP1;P1;durP2;ratioP2;P2;SDS_P1;SDS_P2;PMS_P1;PMS_P2;Temp;Humidity;BMP_temperature;BMP_pressure;BME280_temperature;BME280_humidity;BME280_pressure;Samples;Min_cycle;Max_cycle;Signal;HPM_P1;HPM_P2
2024/04/12 00:01:14;;;;;;;;;;;7.20;99.90;;;;;;5478850;26;20395;-64
2024/04/12 00:03:48;;;;;;;;;;;7.20;99.90;;;;;;5477786;26;19957;-64
2024/04/12 00:06:20;;;;;;;;;;;7.20;99.90;;;;;;5479277;26;19935;-63
2024/04/12 00:08:48;;;;;;;;;;;7.30;99.90;;;;;;5478710;26;20344;-63
2024/04/12 00:11:19;;;;;;;;;;;7.20;99.90;;;;;;5485389;26;19968;-63
2024/04/12 00:13:46;;;;;;;;;;;7.20;99.90;;;;;;5476821;26;19929;-63
2024/04/12 00:16:17;;;;;;;;;;;7.10;99.90;;;;;;5481281;26;19932;-63
2024/04/12 00:18:46;;;;;;;;;;;7.10;99.90;;;;;;5483495;26;19948;-64
2024/04/12 00:21:14;;;;;;;;;;;7.10;99.90;;;;;;5451027;26;19959;-64
2024/04/12 00:23:41;;;;;;;;;;;7.00;99.90;;;;;;5477469;26;19936;-64
2024/04/12 00:26:11;;;;;;;;;;;7.00;99.90;;;;;;5482413;26;19956;-64
2024/04/12 00:28:38;;;;;;;;;;;7.00;99.90;;;;;;5475095;26;19928;-64
2024/04/12 00:31:06;;;;;;;;;;;6.90;99.90;;;;;;5475637;26;19932;-64
2024/04/12 00:33:34;;;;;;;;;;;6.80;99.90;;;;;;5484124;26;19928;-64
2024/04/12 00:36:08;;;;;;;;;;;6.70;99.90;;;;;;5481942;26;19928;-64
2024/04/12 00:38:38;;;;;;;;;;;6.80;99.90;;;;;;5475965;26;19935;-63
2024/04/12 00:41:11;;;;;;;;;;;6.80;99.90;;;;;;5473020;26;19936;-63
2024/04/12 00:43:44;;;;;;;;;;;6.80;99.90;;;;;;5486138;26;19932;-63
2024/04/12 00:46:15;;;;;;;;;;;6.80;99.90;;;;;;5485056;26;19928;-63
2024/04/12 00:48:43;;;;;;;;;;;6.90;99.90;;;;;;5482953;26;19939;-63
2024/04/12 00:51:17;;;;;;;;;;;6.90;99.90;;;;;;5485213;26;19928;-63
2024/04/12 00:53:56;;;;;;;;;;;6.90;99.90;;;;;;5477161;26;19936;-63
2024/04/12 00:56:29;;;;;;;;;;;6.90;99.90;;;;;;5483715;26;19928;-63
2024/04/12 00:58:56;;;;;;;;;;;6.90;99.90;;;;;;5478675;26;19956;-64
2024/04/12 01:01:24;;;;;;;;;;;6.80;99.90;;;;;;5483545;26;19940;-63
2024/04/12 01:03:55;;;;;;;;;;;6.80;99.90;;;;;;5480776;26;19963;-64
2024/04/12 01:06:29;;;;;;;;;;;6.80;99.90;;;;;;5484076;26;19936;-63
2024/04/12 01:08:58;;;;;;;;;;;6.70;99.90;;;;;;5479688;26;19977;-63
2024/04/12 01:11:27;;;;;;;;;;;6.70;99.90;;;;;;5485449;26;19935;-63
2024/04/12 01:13:54;;;;;;;;;;;6.80;99.90;;;;;;5479080;26;20387;-64
2024/04/12 01:16:23;;;;;;;;;;;6.70;99.90;;;;;;5482299;26;19996;-63
2024/04/12 01:18:55;;;;;;;;;;;6.70;99.90;;;;;;5478657;26;19933;-63
2024/04/12 01:21:23;;;;;;;;;;;6.60;99.90;;;;;;5475108;26;19980;-63
2024/04/12 01:23:53;;;;;;;;;;;6.60;99.90;;;;;;5474887;26;19936;-64
2024/04/12 01:26:27;;;;;;;;;;;6.50;99.90;;;;;;5479079;26;19996;-63
2024/04/12 01:28:56;;;;;;;;;;;6.50;99.90;;;;;;5482125;26;19929;-63
2024/04/12 01:31:28;;;;;;;;;;;6.40;99.90;;;;;;5479345;26;19935;-63
2024/04/12 01:33:54;;;;;;;;;;;6.50;99.90;;;;;;5487411;26;19959;-63
2024/04/12 01:36:22;;;;;;;;;;;6.40;99.90;;;;;;5488032;26;19955;-64
2024/04/12 01:38:57;;;;;;;;;;;6.40;99.90;;;;;;5488007;26;20339;-64
2024/04/12 01:41:24;;;;;;;;;;;6.40;99.90;;;;;;5482078;26;19935;-63
2024/04/12 01:43:52;;;;;;;;;;;6.30;99.90;;;;;;5481616;26;20005;-64
2024/04/12 01:46:26;;;;;;;;;;;6.30;99.90;;;;;;5480978;26;19927;-64
2024/04/12 01:48:54;;;;;;;;;;;6.30;99.90;;;;;;5480247;26;20002;-63
2024/04/12 01:51:24;;;;;;;;;;;6.30;99.90;;;;;;5457590;26;20524;-63
2024/04/12 01:53:57;;;;;;;;;;;6.30;99.90;;;;;;5480085;26;20380;-63
2024/04/12 01:56:31;;;;;;;;;;;6.20;99.90;;;;;;5476172;26;19928;-63
2024/04/12 01:58:59;;;;;;;;;;;6.20;99.90;;;;;;5485835;26;19992;-63
2024/04/12 02:01:27;;;;;;;;;;;6.20;99.90;;;;;;5479233;26;20281;-64
2024/04/12 02:03:54;;;;;;;;;;;6.20;99.90;;;;;;5488330;26;19935;-63
2024/04/12 02:06:22;;;;;;;;;;;6.20;99.90;;;;;;5487535;26;20376;-63
2024/04/12 02:08:57;;;;;;;;;;;6.10;99.90;;;;;;5481178;26;20353;-63
2024/04/12 02:11:29;;;;;;;;;;;6.10;99.90;;;;;;5480950;26;19981;-63
2024/04/12 02:13:58;;;;;;;;;;;6.10;99.90;;;;;;5482582;26;20272;-63
2024/04/12 02:16:25;;;;;;;;;;;6.10;99.90;;;;;;5482141;26;19964;-63
2024/04/12 02:18:52;;;;;;;;;;;6.10;99.90;;;;;;5476047;26;19932;-64
2024/04/12 02:21:19;;;;;;;;;;;6.10;99.90;;;;;;5484976;26;19996;-64
2024/04/12 02:23:48;;;;;;;;;;;6.10;99.90;;;;;;5484321;26;19952;-63
2024/04/12 02:26:15;;;;;;;;;;;6.10;99.90;;;;;;5482235;26;19940;-63
2024/04/12 02:28:43;;;;;;;;;;;6.10;99.90;;;;;;5488258;26;19939;-64
2024/04/12 02:31:14;;;;;;;;;;;6.20;99.90;;;;;;5480741;26;19928;-63
2024/04/12 02:33:42;;;;;;;;;;;6.10;99.90;;;;;;5487279;26;19940;-64
2024/04/12 02:36:12;;;;;;;;;;;6.10;99.90;;;;;;5483709;26;20276;-63
2024/04/12 02:38:39;;;;;;;;;;;6.10;99.90;;;;;;5485762;26;19932;-63
2024/04/12 02:41:14;;;;;;;;;;;6.10;99.90;;;;;;5481847;26;19928;-64
2024/04/12 02:43:41;;;;;;;;;;;6.10;99.90;;;;;;5480368;26;20000;-64
2024/04/12 02:46:11;;;;;;;;;;;6.00;99.90;;;;;;5483485;26;19967;-64
2024/04/12 02:48:47;;;;;;;;;;;6.00;99.90;;;;;;5484838;26;20406;-64
2024/04/12 02:51:17;;;;;;;;;;;6.00;99.90;;;;;;5483788;26;19928;-64
2024/04/12 02:53:45;;;;;;;;;;;6.00;99.90;;;;;;5483671;26;19940;-64
2024/04/12 02:56:12;;;;;;;;;;;5.90;99.90;;;;;;5488654;26;20376;-63
2024/04/12 02:58:41;;;;;;;;;;;5.90;99.90;;;;;;5486819;26;19938;-63
2024/04/12 03:01:12;;;;;;;;;;;5.90;99.90;;;;;;5484185;26;19935;-64
2024/04/12 03:03:45;;;;;;;;;;;5.90;99.90;;;;;;5482677;26;19932;-64
2024/04/12 03:06:17;;;;;;;;;;;5.90;99.90;;;;;;5480296;26;19956;-64
2024/04/12 03:08:47;;;;;;;;;;;5.80;99.90;;;;;;5485628;26;20455;-63
2024/04/12 03:11:22;;;;;;;;;;;5.80;99.90;;;;;;5481116;26;20369;-63
2024/04/12 03:13:54;;;;;;;;;;;5.80;99.90;;;;;;5479121;26;19996;-64
2024/04/12 03:16:21;;;;;;;;;;;5.70;99.90;;;;;;5484836;26;19973;-63
2024/04/12 03:18:51;;;;;;;;;;;5.70;99.90;;;;;;5483299;26;19932;-63
2024/04/12 03:21:21;;;;;;;;;;;5.70;99.90;;;;;;5484316;26;19939;-64
2024/04/12 03:23:48;;;;;;;;;;;5.70;99.90;;;;;;5484777;26;19996;-63
2024/04/12 03:26:16;;;;;;;;;;;5.70;99.90;;;;;;5481813;26;20412;-63
2024/04/12 03:28:49;;;;;;;;;;;5.70;99.90;;;;;;5484207;26;19944;-63
2024/04/12 03:31:17;;;;;;;;;;;5.70;99.90;;;;;;5482173;26;19957;-64
2024/04/12 03:33:44;;;;;;;;;;;5.70;99.90;;;;;;5473778;26;19927;-64
2024/04/12 03:36:27;;;;;;;;;;;5.70;99.90;;;;;;5478845;26;19938;-63
2024/04/12 03:39:24;;;;;;;;;;;5.70;99.90;;;;;;5476914;26;19952;-63
2024/04/12 03:41:58;;;;;;;;;;;5.60;99.90;;;;;;5477734;26;19928;-63
2024/04/12 03:44:31;;;;;;;;;;;5.60;99.90;;;;;;5470248;26;19928;-64
2024/04/12 03:46:59;;;;;;;;;;;5.60;99.90;;;;;;5477588;26;19943;-63
2024/04/12 03:49:28;;;;;;;;;;;5.60;99.90;;;;;;5485256;26;19936;-63
2024/04/12 03:51:56;;;;;;;;;;;5.60;99.90;;;;;;5485789;26;19928;-64
2024/04/12 03:54:24;;;;;;;;;;;5.60;99.90;;;;;;5474162;26;19936;-64
2024/04/12 03:56:56;;;;;;;;;;;5.60;99.90;;;;;;5476232;26;19935;-64
2024/04/12 03:59:29;;;;;;;;;;;6.10;99.90;;;;;;5475307;26;19936;-64
2024/04/12 04:01:56;;;;;;;;;;;6.30;99.90;;;;;;5471276;26;19935;-63
2024/04/12 04:04:28;;;;;;;;;;;6.30;99.90;;;;;;5485866;26;20295;-64
2024/04/12 04:06:55;;;;;;;;;;;6.30;99.90;;;;;;5485034;26;19943;-64
2024/04/12 04:09:22;;;;;;;;;;;6.20;99.90;;;;;;5480157;26;19939;-64
2024/04/12 04:11:54;;;;;;;;;;;6.10;99.90;;;;;;5481829;26;19928;-63
2024/04/12 04:14:25;;;;;;;;;;;6.00;99.90;;;;;;5479790;26;19928;-64
2024/04/12 04:16:55;;;;;;;;;;;5.90;99.90;;;;;;5478294;26;19935;-64
2024/04/12 04:19:35;;;;;;;;;;;5.90;99.90;;;;;;5480515;26;19935;-64
2024/04/12 04:22:03;;;;;;;;;;;5.80;99.90;;;;;;5480142;26;19934;-63
2024/04/12 04:24:37;;;;;;;;;;;5.80;99.90;;;;;;5480942;26;19935;-64
2024/04/12 04:27:08;;;;;;;;;;;5.70;99.90;;;;;;5471000;26;19978;-64
2024/04/12 04:29:35;;;;;;;;;;;5.70;99.90;;;;;;5484975;26;19936;-64
2024/04/12 04:32:09;;;;;;;;;;;5.70;99.90;;;;;;5471555;26;19996;-63
2024/04/12 04:34:36;;;;;;;;;;;5.60;99.90;;;;;;5465145;26;20400;-64
2024/04/12 04:37:05;;;;;;;;;;;5.60;99.90;;;;;;5469428;26;19929;-63
2024/04/12 04:39:32;;;;;;;;;;;5.60;99.90;;;;;;5474161;26;19939;-64
2024/04/12 04:41:59;;;;;;;;;;;5.50;99.90;;;;;;5472086;26;20284;-64
2024/04/12 04:44:26;;;;;;;;;;;5.50;99.90;;;;;;5475349;26;19936;-64
2024/04/12 04:46:53;;;;;;;;;;;5.50;99.90;;;;;;5467858;26;19927;-63
2024/04/12 04:49:23;;;;;;;;;;;5.50;99.90;;;;;;5465107;26;19932;-63
2024/04/12 04:51:50;;;;;;;;;;;5.50;99.90;;;;;;5462520;26;19998;-63
2024/04/12 04:54:21;;;;;;;;;;;5.50;99.90;;;;;;5477599;26;19928;-64
2024/04/12 04:56:51;;;;;;;;;;;5.60;99.90;;;;;;5483719;26;20269;-63
2024/04/12 04:59:28;;;;;;;;;;;5.60;99.90;;;;;;5471062;26;19963;-64
2024/04/12 05:01:56;;;;;;;;;;;5.50;99.90;;;;;;5478833;26;19928;-64
2024/04/12 05:04:31;;;;;;;;;;;5.50;99.90;;;;;;5473088;26;19939;-64
2024/04/12 05:06:58;;;;;;;;;;;5.50;99.90;;;;;;5481739;26;20288;-63
2024/04/12 05:09:27;;;;;;;;;;;5.50;99.90;;;;;;5484490;26;19960;-64
2024/04/12 05:11:54;;;;;;;;;;;5.50;99.90;;;;;;5484048;26;19928;-63
2024/04/12 05:15:10;;;;;;;;;;;5.50;99.90;;;;;;5478321;26;20309;-64
2024/04/12 05:17:15;;;;;;;;;;;5.50;99.90;;;;;;5491763;25;19932;-64
2024/04/12 05:19:43;;;;;;;;;;;5.50;99.90;;;;;;5478782;26;20380;-64
2024/04/12 05:22:11;;;;;;;;;;;5.50;99.90;;;;;;5481874;26;19929;-65
2024/04/12 05:24:39;;;;;;;;;;;5.50;99.90;;;;;;5483116;26;20038;-63
2024/04/12 05:27:06;;;;;;;;;;;5.50;99.90;;;;;;5486466;26;19928;-64
2024/04/12 05:29:34;;;;;;;;;;;5.50;99.90;;;;;;5481406;26;19940;-64
2024/04/12 05:32:06;;;;;;;;;;;5.50;99.90;;;;;;5483864;26;20316;-64
2024/04/12 05:34:38;;;;;;;;;;;5.60;99.90;;;;;;5483541;26;19932;-64
2024/04/12 05:37:09;;;;;;;;;;;5.60;99.90;;;;;;5474008;26;19928;-64
2024/04/12 05:39:42;;;;;;;;;;;5.60;99.90;;;;;;5483963;26;20221;-63
2024/04/12 05:42:09;;;;;;;;;;;5.70;99.90;;;;;;5482597;26;19935;-63
2024/04/12 05:44:37;;;;;;;;;;;5.70;99.90;;;;;;5484322;26;20287;-64
2024/04/12 05:47:09;;;;;;;;;;;5.70;99.90;;;;;;5478491;26;19964;-64
2024/04/12 05:49:36;;;;;;;;;;;5.70;99.90;;;;;;5479205;26;20333;-64
2024/04/12 05:52:06;;;;;;;;;;;5.80;99.90;;;;;;5483371;26;19954;-64
2024/04/12 05:54:44;;;;;;;;;;;5.80;99.90;;;;;;5482007;26;19940;-64
2024/04/12 05:57:11;;;;;;;;;;;5.90;99.90;;;;;;5487090;26;19928;-64
2024/04/12 05:59:42;;;;;;;;;;;5.90;99.90;;;;;;5486433;26;19928;-64
2024/04/12 06:02:10;;;;;;;;;;;6.00;99.90;;;;;;5485980;26;19928;-64
2024/04/12 06:04:46;;;;;;;;;;;6.00;99.90;;;;;;5507503;26;20388;-64
2024/04/12 06:07:13;;;;;;;;;;;6.10;99.90;;;;;;5483460;26;19939;-64
2024/04/12 06:09:40;;;;;;;;;;;6.20;99.90;;;;;;5476338;26;19928;-64
2024/04/12 06:12:13;;;;;;;;;;;6.30;99.90;;;;;;5481536;26;20016;-64
2024/04/12 06:14:42;;;;;;;;;;;6.30;99.90;;;;;;5482148;26;19956;-64
2024/04/12 06:17:09;;;;;;;;;;;6.30;99.90;;;;;;5466487;26;19948;-64
2024/04/12 06:19:39;;;;;;;;;;;6.40;99.90;;;;;;5479338;26;19956;-64
2024/04/12 06:22:13;;;;;;;;;;;6.40;99.90;;;;;;5474571;26;19997;-64
2024/04/12 06:24:40;;;;;;;;;;;6.50;99.90;;;;;;5484980;26;19928;-64
2024/04/12 06:27:09;;;;;;;;;;;6.60;99.90;;;;;;5484028;26;19935;-63
2024/04/12 06:29:35;;;;;;;;;;;6.70;99.90;;;;;;5480073;26;19996;-64
2024/04/12 06:32:02;;;;;;;;;;;6.70;99.90;;;;;;5485142;26;19928;-64
2024/04/12 06:34:37;;;;;;;;;;;6.80;99.90;;;;;;5483604;26;19932;-64
2024/04/12 06:37:09;;;;;;;;;;;6.90;99.90;;;;;;5481043;26;20474;-64
2024/04/12 06:39:36;;;;;;;;;;;7.00;99.90;;;;;;5483844;26;19952;-63
2024/04/12 06:42:08;;;;;;;;;;;7.00;99.90;;;;;;5480505;26;20378;-64
2024/04/12 06:44:35;;;;;;;;;;;7.10;99.90;;;;;;5478381;26;19932;-64
2024/04/12 06:47:05;;;;;;;;;;;7.10;99.90;;;;;;5480890;26;20540;-64
2024/04/12 06:49:37;;;;;;;;;;;7.20;99.90;;;;;;5466949;26;20727;-64
2024/04/12 06:52:10;;;;;;;;;;;7.20;99.90;;;;;;5488522;26;19977;-64
2024/04/12 06:54:41;;;;;;;;;;;7.30;99.90;;;;;;5482394;26;20059;-64
2024/04/12 06:57:25;;;;;;;;;;;7.40;99.90;;;;;;5478406;26;19939;-64
2024/04/12 06:59:58;;;;;;;;;;;7.60;99.90;;;;;;5482670;26;19937;-64
2024/04/12 07:02:30;;;;;;;;;;;7.70;99.90;;;;;;5477136;26;19997;-64
2024/04/12 07:04:56;;;;;;;;;;;7.80;99.90;;;;;;5477919;26;19943;-64
2024/04/12 07:07:28;;;;;;;;;;;7.90;99.90;;;;;;5459816;26;20297;-64
2024/04/12 07:09:58;;;;;;;;;;;8.00;99.90;;;;;;5472388;26;19969;-64
2024/04/12 07:12:33;;;;;;;;;;;8.10;99.90;;;;;;5479166;26;19928;-64
2024/04/12 07:15:00;;;;;;;;;;;8.20;99.90;;;;;;5481235;26;19935;-64
2024/04/12 07:17:28;;;;;;;;;;;8.30;99.90;;;;;;5479742;26;19978;-64
2024/04/12 07:19:57;;;;;;;;;;;8.40;99.90;;;;;;5475429;26;20332;-64
2024/04/12 07:22:26;;;;;;;;;;;8.50;99.90;;;;;;5482333;26;19928;-64
2024/04/12 07:24:54;;;;;;;;;;;8.60;99.90;;;;;;5481239;26;20004;-64
2024/04/12 07:27:27;;;;;;;;;;;8.70;99.90;;;;;;5482080;26;19932;-64
2024/04/12 07:29:54;;;;;;;;;;;8.80;99.90;;;;;;5481931;26;19928;-64
2024/04/12 07:32:25;;;;;;;;;;;8.90;99.90;;;;;;5486005;26;19939;-64
2024/04/12 07:34:52;;;;;;;;;;;9.00;99.90;;;;;;5480287;26;20370;-64
2024/04/12 07:37:36;;;;;;;;;;;9.10;99.90;;;;;;5480059;26;20338;-64
2024/04/12 07:40:24;;;;;;;;;;;9.30;99.90;;;;;;5479470;26;20353;-64
2024/04/12 07:42:57;;;;;;;;;;;9.50;99.90;;;;;;5479550;26;19935;-64
2024/04/12 07:45:25;;;;;;;;;;;9.60;99.90;;;;;;5480884;26;19927;-64
2024/04/12 07:47:53;;;;;;;;;;;9.70;99.90;;;;;;5476286;26;19956;-64
2024/04/12 07:50:30;;;;;;;;;;;9.70;99.90;;;;;;5478850;26;20441;-64
2024/04/12 07:53:10;;;;;;;;;;;9.80;99.90;;;;;;5504535;26;19997;-64
2024/04/12 07:55:39;;;;;;;;;;;9.90;99.90;;;;;;5467901;26;19936;-64
2024/04/12 07:58:08;;;;;;;;;;;10.10;99.90;;;;;;5477426;26;19983;-64
2024/04/12 08:00:45;;;;;;;;;;;10.10;99.90;;;;;;5465365;26;20455;-64
2024/04/12 08:03:16;;;;;;;;;;;10.20;99.90;;;;;;5471907;26;19997;-65
2024/04/12 08:06:03;;;;;;;;;;;10.30;99.90;;;;;;5477831;26;20423;-64
2024/04/12 08:08:31;;;;;;;;;;;10.40;99.90;;;;;;5468488;26;19952;-65
2024/04/12 08:11:10;;;;;;;;;;;10.50;99.90;;;;;;5481411;26;19957;-64
2024/04/12 08:13:44;;;;;;;;;;;10.60;99.90;;;;;;5472552;26;19929;-64
2024/04/12 08:16:14;;;;;;;;;;;10.70;99.90;;;;;;5464113;26;19956;-64
2024/04/12 08:18:43;;;;;;;;;;;10.80;99.90;;;;;;5469631;26;20256;-64
2024/04/12 08:21:12;;;;;;;;;;;10.90;99.90;;;;;;5469095;26;19928;-65
2024/04/12 08:23:43;;;;;;;;;;;11.10;99.90;;;;;;5469784;26;19962;-64
2024/04/12 08:26:11;;;;;;;;;;;11.30;99.90;;;;;;5465873;26;19928;-65
2024/04/12 08:28:43;;;;;;;;;;;11.50;99.90;;;;;;5464629;26;19957;-65
2024/04/12 08:31:11;;;;;;;;;;;11.60;99.90;;;;;;5468907;26;20298;-65
2024/04/12 08:33:45;;;;;;;;;;;11.80;99.90;;;;;;5472431;26;20391;-65
2024/04/12 08:36:16;;;;;;;;;;;11.90;99.90;;;;;;5479343;26;19939;-64
2024/04/12 08:39:11;;;;;;;;;;;11.90;99.90;;;;;;5470933;26;20384;-63
2024/04/12 08:41:44;;;;;;;;;;;12.00;99.90;;;;;;5475344;26;20265;-66
2024/04/12 08:44:11;;;;;;;;;;;12.10;99.90;;;;;;5480767;26;19960;-66
2024/04/12 08:46:43;;;;;;;;;;;12.20;99.90;;;;;;5472239;26;19939;-66
2024/04/12 08:49:14;;;;;;;;;;;12.30;99.90;;;;;;5466052;26;20372;-67
2024/04/12 08:51:41;;;;;;;;;;;12.50;99.90;;;;;;5475019;26;19936;-66
2024/04/12 08:54:11;;;;;;;;;;;12.70;99.90;;;;;;5480284;26;20615;-66
2024/04/12 08:56:39;;;;;;;;;;;12.80;99.90;;;;;;5467955;26;19944;-66
2024/04/12 08:59:07;;;;;;;;;;;12.90;99.90;;;;;;5475882;26;20272;-66
2024/04/12 09:01:40;;;;;;;;;;;13.10;99.90;;;;;;5474201;26;19953;-67
2024/04/12 09:04:15;;;;;;;;;;;13.30;99.90;;;;;;5463871;26;19940;-66
2024/04/12 09:06:48;;;;;;;;;;;13.40;99.90;;;;;;5480701;26;20288;-66
2024/04/12 09:09:17;;;;;;;;;;;13.60;99.90;;;;;;5476944;26;20275;-66
2024/04/12 09:11:44;;;;;;;;;;;13.70;99.90;;;;;;5475823;26;19928;-66
2024/04/12 09:14:19;;;;;;;;;;;13.90;99.90;;;;;;5503562;25;19934;-65
2024/04/12 09:16:48;;;;;;;;;;;14.10;99.90;;;;;;5465571;26;19943;-65
2024/04/12 09:19:15;;;;;;;;;;;14.30;99.90;;;;;;5467406;26;19935;-64
2024/04/12 09:21:58;;;;;;;;;;;14.40;99.90;;;;;;5471602;26;20358;-63
2024/04/12 09:24:39;;;;;;;;;;;14.50;99.90;;;;;;5470281;26;19935;-64
2024/04/12 09:27:09;;;;;;;;;;;14.60;99.90;;;;;;5474420;26;19935;-64
2024/04/12 09:29:45;;;;;;;;;;;14.80;99.90;;;;;;5477420;26;19928;-64
2024/04/12 09:35:04;;;;;;;;;;;15.10;99.90;;;;;;5476219;26;20345;-63
2024/04/12 09:37:42;;;;;;;;;;;15.20;99.90;;;;;;5464917;26;19952;-63
2024/04/12 09:45:48;;;;;;;;;;;15.60;99.90;;;;;;5476461;26;19940;-63
2024/04/12 10:39:30;;;;;;;;;;;17.10;99.90;;;;;;5466579;26;19928;-64
2024/04/12 10:42:00;;;;;;;;;;;17.10;99.90;;;;;;5473022;26;19940;-64
2024/04/12 10:44:32;;;;;;;;;;;17.30;99.90;;;;;;5475774;26;19940;-64
2024/04/12 10:47:04;;;;;;;;;;;17.40;99.90;;;;;;5478430;26;19973;-64
2024/04/12 10:49:33;;;;;;;;;;;17.50;99.90;;;;;;5473444;26;19957;-65
2024/04/12 10:52:03;;;;;;;;;;;17.70;99.90;;;;;;5464041;26;19935;-64
2024/04/12 10:54:37;;;;;;;;;;;17.70;99.90;;;;;;5472348;26;19935;-64
2024/04/12 10:57:13;;;;;;;;;;;17.90;99.90;;;;;;5471038;26;19935;-64
2024/04/12 10:59:45;;;;;;;;;;;18.00;99.90;;;;;;5470134;26;19932;-64
2024/04/12 11:02:12;;;;;;;;;;;18.10;99.90;;;;;;5467810;26;20382;-64
2024/04/12 11:07:34;;;;;;;;;;;18.20;99.90;;;;;;5475339;26;19932;-64
2024/04/12 11:10:22;;;;;;;;;;;18.20;99.90;;;;;;5462100;26;19932;-64
2024/04/12 11:12:51;;;;;;;;;;;18.20;99.90;;;;;;5481604;26;19935;-64
2024/04/12 11:32:22;;;;;;;;;;;18.70;99.90;;;;;;5478654;26;19935;-64
2024/04/12 11:34:48;;;;;;;;;;;18.80;99.90;;;;;;5478657;26;19928;-64
2024/04/12 11:37:16;;;;;;;;;;;19.00;99.90;;;;;;5482385;26;20311;-64
2024/04/12 11:39:48;;;;;;;;;;;19.00;99.90;;;;;;5484227;26;19936;-64
2024/04/12 11:42:18;;;;;;;;;;;19.10;99.90;;;;;;5476869;26;19939;-65
2024/04/12 11:44:53;;;;;;;;;;;19.10;99.90;;;;;;5469953;26;19944;-64
2024/04/12 11:47:23;;;;;;;;;;;19.00;99.90;;;;;;5473620;26;19936;-64
2024/04/12 11:49:57;;;;;;;;;;;18.90;99.90;;;;;;5472064;26;19932;-65
2024/04/12 11:52:25;;;;;;;;;;;18.80;99.90;;;;;;5466211;26;19997;-63
2024/04/12 11:54:58;;;;;;;;;;;18.70;99.90;;;;;;5475971;26;19928;-63
2024/04/12 11:57:27;;;;;;;;;;;18.80;99.90;;;;;;5463400;26;20391;-64
2024/04/12 12:00:00;;;;;;;;;;;18.80;99.90;;;;;;5473037;26;19964;-63
2024/04/12 12:02:42;;;;;;;;;;;19.00;99.90;;;;;;5467047;26;19952;-64
2024/04/12 12:05:16;;;;;;;;;;;19.10;99.90;;;;;;5450057;26;19948;-63
2024/04/12 12:07:48;;;;;;;;;;;19.30;99.90;;;;;;5477555;26;19936;-63
2024/04/12 12:10:15;;;;;;;;;;;19.50;99.90;;;;;;5467606;26;20276;-63
2024/04/12 12:12:43;;;;;;;;;;;19.60;99.90;;;;;;5478901;26;19936;-64
2024/04/12 12:15:10;;;;;;;;;;;19.70;99.90;;;;;;5476336;26;19932;-64
2024/04/12 12:17:37;;;;;;;;;;;19.70;99.90;;;;;;5469331;26;19928;-64
2024/04/12 12:20:06;;;;;;;;;;;19.80;99.90;;;;;;5475153;26;19972;-64
2024/04/12 12:22:33;;;;;;;;;;;19.80;99.90;;;;;;5468131;26;19971;-65
2024/04/12 12:24:59;;;;;;;;;;;19.90;99.90;;;;;;5476706;26;19932;-64
2024/04/12 12:27:26;;;;;;;;;;;19.90;99.90;;;;;;5462323;26;19935;-64
2024/04/12 12:29:53;;;;;;;;;;;19.90;99.90;;;;;;5473082;26;19978;-64
2024/04/12 12:32:25;;;;;;;;;;;20.00;99.90;;;;;;5482486;26;19956;-63
2024/04/12 12:34:57;;;;;;;;;;;20.10;99.90;;;;;;5473390;26;19939;-64
2024/04/12 12:37:28;;;;;;;;;;;20.10;99.90;;;;;;5472185;26;20201;-64
2024/04/12 12:40:01;;;;;;;;;;;20.10;99.90;;;;;;5484664;26;20291;-63
2024/04/12 12:42:31;;;;;;;;;;;20.30;99.90;;;;;;5480055;26;19956;-64
2024/04/12 12:45:03;;;;;;;;;;;20.30;99.90;;;;;;5478882;26;19935;-64
2024/04/12 12:47:31;;;;;;;;;;;20.40;99.90;;;;;;5497138;26;19932;-64
2024/04/12 12:50:01;;;;;;;;;;;20.40;99.90;;;;;;5477210;26;19928;-64
2024/04/12 12:52:32;;;;;;;;;;;20.50;99.90;;;;;;5481247;26;20338;-64
2024/04/12 12:55:05;;;;;;;;;;;20.60;99.90;;;;;;5470654;26;19936;-64
2024/04/12 12:57:39;;;;;;;;;;;20.60;99.90;;;;;;5481988;26;20448;-64
2024/04/12 13:00:18;;;;;;;;;;;20.50;99.90;;;;;;5478322;26;19997;-64
2024/04/12 13:02:51;;;;;;;;;;;20.40;99.90;;;;;;5477279;26;19939;-64
2024/04/12 13:05:30;;;;;;;;;;;20.40;99.90;;;;;;5478678;26;19935;-64
2024/04/12 13:08:02;;;;;;;;;;;20.40;99.90;;;;;;5482058;26;19928;-64
2024/04/12 13:10:33;;;;;;;;;;;20.30;99.90;;;;;;5475044;26;19939;-63
2024/04/12 13:13:05;;;;;;;;;;;20.30;99.90;;;;;;5471672;26;19935;-64
2024/04/12 13:15:39;;;;;;;;;;;20.20;99.90;;;;;;5479503;26;19931;-64
2024/04/12 13:18:11;;;;;;;;;;;20.20;99.90;;;;;;5480708;26;19997;-64
2024/04/12 13:20:37;;;;;;;;;;;20.20;99.90;;;;;;5462408;26;19957;-64
2024/04/12 13:23:04;;;;;;;;;;;20.20;99.90;;;;;;5462811;26;19930;-64
2024/04/12 13:25:31;;;;;;;;;;;20.40;99.90;;;;;;5469531;26;19935;-63
2024/04/12 13:27:58;;;;;;;;;;;20.50;99.90;;;;;;5479018;26;19958;-64
2024/04/12 13:30:30;;;;;;;;;;;20.70;99.90;;;;;;5457171;26;19965;-64
2024/04/12 13:32:58;;;;;;;;;;;20.80;99.90;;;;;;5479751;26;19928;-64
2024/04/12 13:35:31;;;;;;;;;;;20.90;99.90;;;;;;5476701;26;19940;-64
2024/04/12 13:38:03;;;;;;;;;;;20.90;98.40;;;;;;5474020;26;20276;-63
2024/04/12 13:40:35;;;;;;;;;;;20.80;99.20;;;;;;5479127;26;20300;-63
2024/04/12 13:43:02;;;;;;;;;;;20.70;99.10;;;;;;5481336;26;20372;-64
2024/04/12 13:51:10;;;;;;;;;;;20.80;99.90;;;;;;5471491;26;20404;-64
2024/04/12 13:53:37;;;;;;;;;;;20.80;99.90;;;;;;5456109;26;19932;-64
2024/04/12 13:56:25;;;;;;;;;;;20.90;99.90;;;;;;5479210;26;19932;-64
2024/04/12 13:58:55;;;;;;;;;;;21.00;99.80;;;;;;5480401;26;19936;-64
2024/04/12 14:01:26;;;;;;;;;;;21.20;99.90;;;;;;5475208;26;19936;-63
2024/04/12 14:03:53;;;;;;;;;;;21.30;99.90;;;;;;5476608;26;19973;-63
2024/04/12 14:06:23;;;;;;;;;;;21.40;99.90;;;;;;5480640;26;19960;-63
2024/04/12 14:08:57;;;;;;;;;;;21.40;99.90;;;;;;5473187;26;19928;-64
2024/04/12 14:11:24;;;;;;;;;;;21.40;99.90;;;;;;5453236;26;19939;-64
2024/04/12 14:13:51;;;;;;;;;;;21.50;99.90;;;;;;5480498;26;20452;-64
2024/04/12 14:16:18;;;;;;;;;;;21.60;99.80;;;;;;5474694;26;19928;-64
2024/04/12 14:18:50;;;;;;;;;;;21.70;99.90;;;;;;5487245;26;20279;-64
2024/04/12 14:21:23;;;;;;;;;;;21.50;99.20;;;;;;5473940;26;19935;-64
2024/04/12 14:23:51;;;;;;;;;;;21.60;99.00;;;;;;5473620;26;19960;-64
2024/04/12 14:26:25;;;;;;;;;;;21.60;99.10;;;;;;5481407;26;19928;-64
2024/04/12 14:28:51;;;;;;;;;;;21.70;99.20;;;;;;5461076;26;19937;-63
2024/04/12 14:31:26;;;;;;;;;;;21.70;99.10;;;;;;5480177;26;19935;-65
2024/04/12 14:33:58;;;;;;;;;;;21.80;99.10;;;;;;5468016;26;19929;-64
2024/04/12 14:36:30;;;;;;;;;;;21.90;99.30;;;;;;5464688;26;20627;-64
2024/04/12 14:38:57;;;;;;;;;;;22.20;99.30;;;;;;5472166;26;19965;-63
2024/04/12 14:41:23;;;;;;;;;;;22.40;99.90;;;;;;5464538;26;19928;-64
2024/04/12 14:43:50;;;;;;;;;;;22.60;98.50;;;;;;5477018;26;19957;-64
2024/04/12 14:46:18;;;;;;;;;;;22.70;98.60;;;;;;5484245;26;19928;-64
2024/04/12 14:48:44;;;;;;;;;;;22.70;97.90;;;;;;5472128;26;20317;-64
2024/04/12 14:51:16;;;;;;;;;;;22.80;98.10;;;;;;5475730;26;19953;-63
2024/04/12 14:53:43;;;;;;;;;;;22.80;98.20;;;;;;5464578;26;19940;-63
2024/04/12 14:56:10;;;;;;;;;;;22.70;98.20;;;;;;5465712;26;20408;-65
2024/04/12 14:58:38;;;;;;;;;;;22.70;97.70;;;;;;5472836;26;19928;-64
2024/04/12 15:01:05;;;;;;;;;;;22.70;97.90;;;;;;5469391;26;20356;-64
2024/04/12 15:48:15;;;;;;;;;;;23.30;93.30;;;;;;5477654;26;19938;-63
2024/04/12 15:50:50;;;;;;;;;;;23.00;93.40;;;;;;5474848;26;19937;-63
2024/04/12 15:53:25;;;;;;;;;;;23.00;93.60;;;;;;5464623;26;20350;-64
2024/04/12 16:12:33;;;;;;;;;;;25.30;87.40;;;;;;5478096;26;20981;-63
2024/04/12 16:15:02;;;;;;;;;;;25.70;84.50;;;;;;5478506;26;19935;-64
2024/04/12 16:17:30;;;;;;;;;;;25.80;83.40;;;;;;5476121;26;19934;-64
2024/04/12 16:19:57;;;;;;;;;;;26.00;83.10;;;;;;5480266;26;19934;-64
2024/04/12 16:22:25;;;;;;;;;;;26.10;82.70;;;;;;5467419;26;19928;-64
2024/04/12 16:24:52;;;;;;;;;;;26.10;81.30;;;;;;5480667;26;20449;-64
2024/04/12 16:27:24;;;;;;;;;;;26.30;81.00;;;;;;5496563;26;19928;-64
2024/04/12 16:29:56;;;;;;;;;;;26.40;80.10;;;;;;5466640;26;20461;-63
2024/04/12 16:32:28;;;;;;;;;;;26.40;80.90;;;;;;5480706;26;19939;-64
2024/04/12 16:34:59;;;;;;;;;;;26.20;76.70;;;;;;5468831;26;19928;-64
2024/04/12 16:37:27;;;;;;;;;;;26.00;76.90;;;;;;5477773;26;19961;-64
2024/04/12 16:39:54;;;;;;;;;;;25.70;77.70;;;;;;5479126;26;19935;-64
2024/04/12 16:42:21;;;;;;;;;;;25.50;78.50;;;;;;5479079;26;19939;-64
2024/04/12 16:44:48;;;;;;;;;;;25.30;79.00;;;;;;5472724;26;19936;-64
2024/04/12 16:47:20;;;;;;;;;;;25.00;77.00;;;;;;5473493;26;19977;-64
2024/04/12 16:49:47;;;;;;;;;;;24.80;79.20;;;;;;5480271;26;19972;-64
2024/04/12 16:52:14;;;;;;;;;;;24.80;79.60;;;;;;5476945;26;19928;-63
2024/04/12 16:54:41;;;;;;;;;;;24.70;80.80;;;;;;5479664;26;19928;-65
2024/04/12 16:57:12;;;;;;;;;;;24.60;80.50;;;;;;5483711;26;19929;-64
2024/04/12 16:59:39;;;;;;;;;;;24.50;83.50;;;;;;5476709;26;19936;-64
2024/04/12 17:02:07;;;;;;;;;;;24.30;90.20;;;;;;5483572;26;19997;-64
2024/04/12 17:04:34;;;;;;;;;;;23.80;91.60;;;;;;5481178;26;19952;-64
2024/04/12 17:07:01;;;;;;;;;;;23.30;92.80;;;;;;5475680;26;19928;-64
2024/04/12 17:09:27;;;;;;;;;;;22.80;93.50;;;;;;5474730;26;19928;-65